createdAt,value
2019-04-21T00:02:38.057Z,101185.64
2019-04-21T00:05:57.167Z,101185.30
2019-04-21T00:09:14.798Z,101178.47
2019-04-21T00:12:07.512Z,101179.19
2019-04-21T00:15:06.151Z,101178.16
2019-04-21T00:18:08.605Z,101172.42
2019-04-21T00:21:22.282Z,101171.47
2019-04-21T00:24:32.026Z,101166.83
2019-04-21T00:27:42.323Z,101169.47
2019-04-21T00:30:47.035Z,101165.87
2019-04-21T00:33:35.638Z,101162.86
2019-04-21T00:36:47.126Z,101152.91
2019-04-21T00:40:06.361Z,101156.39
2019-04-21T00:43:04.667Z,101158.66
2019-04-21T00:46:04.754Z,101153.06
2019-04-21T00:49:16.922Z,101152.88
2019-04-21T00:55:53.461Z,101148.87
2019-04-21T00:58:53.642Z,101152.66
2019-04-21T01:01:53.884Z,101149.95
2019-04-21T01:05:04.961Z,101153.04
2019-04-21T01:08:05.132Z,101147.95
2019-04-21T01:11:14.451Z,101153.94
2019-04-21T01:14:22.246Z,101143.06
2019-04-21T01:17:21.950Z,101138.16
2019-04-21T01:20:16.970Z,101144.27
2019-04-21T01:23:12.698Z,101149.55
2019-04-21T01:26:31.135Z,101145.40
2019-04-21T01:29:46.011Z,101144.08
2019-04-21T01:32:51.515Z,101139.02
2019-04-21T01:35:52.643Z,101146.86
2019-04-21T01:39:02.109Z,101142.23
2019-04-21T01:42:03.228Z,101136.85
2019-04-21T01:45:04.410Z,101136.03
2019-04-21T01:48:12.966Z,101136.27
2019-04-21T01:51:12.968Z,101125.42
2019-04-21T01:54:48.185Z,101124.60
2019-04-21T01:57:49.880Z,101126.84
2019-04-21T02:00:56.874Z,101124.14
2019-04-21T02:04:00.016Z,101131.48
2019-04-21T02:07:11.638Z,101127.40
2019-04-21T02:10:20.355Z,101130.17
2019-04-21T02:13:18.812Z,101125.78
2019-04-21T02:16:30.747Z,101126.19
2019-04-21T02:19:29.843Z,101121.98
2019-04-21T02:23:03.713Z,101120.63
2019-04-21T02:25:47.676Z,101114.69
2019-04-21T02:28:57.479Z,101121.19
2019-04-21T02:32:11.401Z,101118.13
2019-04-21T02:35:14.218Z,101120.36
2019-04-21T02:38:23.836Z,101112.19
2019-04-21T02:41:15.735Z,101114.95
2019-04-21T02:44:30.144Z,101109.38
2019-04-21T02:50:42.973Z,101108.50
2019-04-21T02:54:09.478Z,101103.94
2019-04-21T02:56:55.055Z,101097.30
2019-04-21T03:00:13.825Z,101099.02
2019-04-21T03:03:36.623Z,101092.56
2019-04-21T03:09:49.724Z,101086.67
2019-04-21T03:12:54.822Z,101082.09
2019-04-21T03:16:09.696Z,101075.67
2019-04-21T03:19:06.769Z,101072.09
2019-04-21T03:25:33.529Z,101070.75
2019-04-21T03:28:22.625Z,101068.75
2019-04-21T03:31:58.645Z,101059.09
2019-04-21T03:35:00.278Z,101056.19
2019-04-21T03:40:40.437Z,101053.66
2019-04-21T03:43:53.638Z,101058.42
2019-04-21T03:46:55.695Z,101051.46
2019-04-21T03:50:06.270Z,101060.49
2019-04-21T03:53:16.759Z,101055.92
2019-04-21T03:56:14.839Z,101056.58
2019-04-21T03:59:11.169Z,101056.78
2019-04-21T04:02:31.199Z,101058.66
2019-04-21T04:05:51.606Z,101059.66
2019-04-21T04:11:56.495Z,101055.05
2019-04-21T04:15:07.704Z,101062.55
2019-04-21T04:18:21.078Z,101058.30
2019-04-21T04:21:20.644Z,101060.16
2019-04-21T04:30:32.529Z,101074.73
2019-04-21T04:33:51.886Z,101070.28
2019-04-21T04:40:09.980Z,101062.09
2019-04-21T04:43:01.277Z,101071.04
2019-04-21T04:45:58.804Z,101065.82
2019-04-21T04:49:12.796Z,101071.43
2019-04-21T04:52:34.293Z,101076.86
2019-04-21T04:55:23.626Z,101074.50
2019-04-21T04:58:29.262Z,101076.80
2019-04-21T05:01:51.208Z,101082.08
2019-04-21T05:04:48.126Z,101074.09
2019-04-21T05:07:50.056Z,101072.59
2019-04-21T05:10:59.042Z,101066.38
2019-04-21T05:13:57.610Z,101062.25
2019-04-21T05:16:56.045Z,101068.27
2019-04-21T05:20:10.308Z,101070.55
2019-04-21T05:23:02.618Z,101064.64
2019-04-21T05:25:54.279Z,101065.30
2019-04-21T05:29:01.749Z,101055.02
2019-04-21T05:32:19.788Z,101054.20
2019-04-21T05:35:41.838Z,101056.43
2019-04-21T05:38:42.405Z,101057.72
2019-04-21T05:41:41.317Z,101054.11
2019-04-21T05:45:01.601Z,101050.86
2019-04-21T05:48:11.631Z,101053.87
2019-04-21T05:51:03.742Z,101057.83
2019-04-21T05:54:23.023Z,101050.34
2019-04-21T05:57:14.751Z,101054.54
2019-04-21T06:00:39.417Z,101057.22
2019-04-21T06:03:53.077Z,101045.89
2019-04-21T06:06:43.656Z,101045.17
2019-04-21T06:09:51.352Z,101045.73
2019-04-21T06:12:59.227Z,101044.80
2019-04-21T06:15:56.158Z,101048.33
2019-04-21T06:19:24.061Z,101041.77
2019-04-21T06:22:07.725Z,101040.92
2019-04-21T06:25:41.599Z,101040.73
2019-04-21T06:28:22.701Z,101035.17
2019-04-21T06:34:43.129Z,101034.87
2019-04-21T06:37:46.882Z,101041.70
2019-04-21T06:40:48.679Z,101037.45
2019-04-21T06:43:59.967Z,101040.23
2019-04-21T06:46:56.265Z,101035.88
2019-04-21T06:50:19.035Z,101037.15
2019-04-21T06:53:06.009Z,101034.31
2019-04-21T06:56:13.532Z,101037.72
2019-04-21T06:59:13.444Z,101032.73
2019-04-21T07:02:36.143Z,101032.84
2019-04-21T07:05:38.816Z,101033.31
2019-04-21T07:11:36.783Z,101034.17
2019-04-21T07:14:49.800Z,101027.97
2019-04-21T07:17:49.935Z,101033.45
2019-04-21T07:20:59.730Z,101034.00
2019-04-21T07:24:05.785Z,101028.55
2019-04-21T07:27:08.943Z,101027.06
2019-04-21T07:30:22.800Z,101027.75
2019-04-21T07:33:41.725Z,101025.41
2019-04-21T07:36:30.501Z,101025.36
2019-04-21T07:39:29.977Z,101016.70
2019-04-21T07:42:32.582Z,101017.92
2019-04-21T07:45:35.131Z,101019.60
2019-04-21T07:48:52.572Z,101024.83
2019-04-21T07:52:03.979Z,101019.14
2019-04-21T07:58:05.758Z,101010.39
2019-04-21T08:01:19.855Z,101007.31
2019-04-21T08:07:32.321Z,100998.30
2019-04-21T08:10:36.228Z,100995.34
2019-04-21T08:13:41.520Z,100993.74
2019-04-21T08:16:44.908Z,100994.30
2019-04-21T08:19:49.858Z,100985.14
2019-04-21T08:23:00.426Z,100982.47
2019-04-21T08:26:04.488Z,100986.50
2019-04-21T08:29:12.591Z,100979.65
2019-04-21T08:32:14.469Z,100974.31
2019-04-21T08:38:20.916Z,100973.63
2019-04-21T08:41:27.914Z,100969.39
2019-04-21T08:47:40.075Z,100970.02
2019-04-21T08:50:43.294Z,100967.83
2019-04-21T08:53:57.358Z,100966.72
2019-04-21T08:57:20.184Z,100961.22
2019-04-21T09:00:35.949Z,100953.91
2019-04-21T09:03:57.040Z,100953.21
2019-04-21T09:07:04.558Z,100954.47
2019-04-21T09:10:02.848Z,100953.66
2019-04-21T09:13:11.808Z,100946.06
2019-04-21T09:16:15.442Z,100949.05
2019-04-21T09:19:33.994Z,100940.20
2019-04-21T09:22:28.342Z,100938.97
2019-04-21T09:25:40.761Z,100931.14
2019-04-21T09:28:32.452Z,100936.61
2019-04-21T09:31:29.302Z,100924.64
2019-04-21T09:34:35.864Z,100921.75
2019-04-21T09:37:44.442Z,100911.11
2019-04-21T09:40:45.528Z,100919.92
2019-04-21T09:43:50.127Z,100907.36
2019-04-21T09:46:55.943Z,100900.98
2019-04-21T09:49:56.278Z,100890.13
2019-04-21T09:53:10.451Z,100900.09
2019-04-21T09:56:11.388Z,100885.42
2019-04-21T09:59:19.347Z,100888.07
2019-04-21T10:02:25.338Z,100881.03
2019-04-21T10:05:21.496Z,100879.73
2019-04-21T10:08:25.111Z,100877.14
2019-04-21T10:11:28.847Z,100878.97
2019-04-21T10:14:33.018Z,100879.41
2019-04-21T10:17:44.268Z,100869.34
2019-04-21T10:20:49.209Z,100876.28
2019-04-21T10:23:54.169Z,100874.64
2019-04-21T10:26:58.948Z,100863.44
2019-04-21T10:30:03.687Z,100853.97
2019-04-21T10:33:08.309Z,100853.20
2019-04-21T10:36:13.141Z,100848.31
2019-04-21T10:39:17.808Z,100846.73
2019-04-21T10:42:21.536Z,100838.05
2019-04-21T10:45:25.258Z,100832.97
2019-04-21T10:48:31.640Z,100831.94
2019-04-21T10:51:35.148Z,100838.45
2019-04-21T10:55:05.540Z,100830.12
2019-04-21T10:57:46.411Z,100835.89
2019-04-21T11:00:52.760Z,100828.45
2019-04-21T11:04:07.550Z,100823.20
2019-04-21T11:07:16.344Z,100821.61
2019-04-21T11:10:16.222Z,100815.78
2019-04-21T11:13:20.793Z,100821.83
2019-04-21T11:16:24.516Z,100808.83
2019-04-21T11:19:28.588Z,100807.80
2019-04-21T11:22:33.977Z,100807.56
2019-04-21T11:25:37.846Z,100792.55
2019-04-21T11:28:41.375Z,100786.59
2019-04-21T11:31:45.231Z,100789.17
2019-04-21T11:34:49.344Z,100776.53
2019-04-21T11:38:04.616Z,100775.50
2019-04-21T11:41:00.054Z,100765.79
2019-04-21T11:44:04.983Z,100750.11
2019-04-21T11:47:10.513Z,100750.11
2019-04-21T11:50:14.964Z,100773.99
2019-04-21T11:53:18.958Z,100763.31
2019-04-21T11:56:23.094Z,100759.76
2019-04-21T11:59:27.910Z,100755.87
2019-04-21T12:02:31.571Z,100754.56
2019-04-21T12:05:35.345Z,100747.66
2019-04-21T12:08:43.965Z,100742.37
2019-04-21T12:11:45.326Z,100725.77
2019-04-21T12:14:50.267Z,100725.77
2019-04-21T12:17:54.338Z,100729.22
2019-04-21T12:20:57.975Z,100726.43
2019-04-21T12:24:02.717Z,100726.43
2019-04-21T12:27:07.791Z,100718.66
2019-04-21T12:30:13.723Z,100721.37
2019-04-21T12:33:25.085Z,100700.47
2019-04-21T12:36:29.602Z,100700.47
2019-04-21T12:39:34.665Z,100699.19
2019-04-21T12:42:40.148Z,100688.50
2019-04-21T12:45:44.128Z,100684.20
2019-04-21T12:48:47.843Z,100676.83
2019-04-21T12:51:51.631Z,100676.83
2019-04-21T12:54:55.559Z,100677.42
2019-04-21T12:57:59.466Z,100674.03
2019-04-21T13:01:03.137Z,100674.22
2019-04-21T13:04:08.074Z,100674.22
2019-04-21T13:07:11.679Z,100658.23
2019-04-21T13:10:18.054Z,100652.40
2019-04-21T13:13:22.086Z,100648.77
2019-04-21T13:16:25.688Z,100645.11
2019-04-21T13:19:29.438Z,100630.09
2019-04-21T13:22:34.181Z,100631.48
2019-04-21T13:25:38.160Z,100613.52
2019-04-21T13:28:42.588Z,100613.52
2019-04-21T13:31:46.197Z,100623.28
2019-04-21T13:34:50.933Z,100624.41
2019-04-21T13:37:54.720Z,100620.61
2019-04-21T13:41:18.944Z,100616.14
2019-04-21T13:44:15.659Z,100617.82
2019-04-21T13:47:20.798Z,100604.70
2019-04-21T13:50:25.588Z,100604.70
2019-04-21T13:53:29.255Z,100596.23
2019-04-21T13:56:34.344Z,100593.56
2019-04-21T13:59:38.427Z,100600.11
2019-04-21T14:02:42.676Z,100598.59
2019-04-21T14:05:46.556Z,100598.33
2019-04-21T14:08:51.202Z,100592.36
2019-04-21T14:11:56.979Z,100593.42
2019-04-21T14:15:02.209Z,100595.67
2019-04-21T14:18:06.860Z,100582.94
2019-04-21T14:21:11.383Z,100582.97
2019-04-21T14:24:15.068Z,100576.22
2019-04-21T14:27:18.651Z,100575.83
2019-04-21T14:30:23.088Z,100570.09
2019-04-21T14:33:27.891Z,100565.87
2019-04-21T14:36:32.718Z,100565.64
2019-04-21T14:39:48.549Z,100560.58
2019-04-21T14:42:42.270Z,100560.80
2019-04-21T14:45:56.848Z,100552.72
2019-04-21T14:49:03.410Z,100556.16
2019-04-21T14:52:08.920Z,100543.84
2019-04-21T14:55:14.401Z,100549.02
2019-04-21T14:58:19.116Z,100545.67
2019-04-21T15:01:23.924Z,100537.08
2019-04-21T15:04:28.000Z,100529.18
2019-04-21T15:07:33.007Z,100537.49
2019-04-21T15:10:36.856Z,100535.48
2019-04-21T15:13:41.673Z,100529.71
2019-04-21T15:16:45.373Z,100529.71
2019-04-21T15:19:56.091Z,100524.75
2019-04-21T15:22:54.520Z,100524.80
2019-04-21T15:25:58.035Z,100521.11
2019-04-21T15:29:02.731Z,100522.44
2019-04-21T15:32:06.428Z,100515.12
2019-04-21T15:35:11.080Z,100514.30
2019-04-21T15:38:15.981Z,100512.81
2019-04-21T15:41:20.602Z,100507.30
2019-04-21T15:44:24.819Z,100503.12
2019-04-21T15:47:28.422Z,100503.88
2019-04-21T15:50:32.357Z,100502.49
2019-04-21T15:53:37.579Z,100506.31
2019-04-21T15:56:42.864Z,100492.73
2019-04-21T15:59:54.999Z,100487.79
2019-04-21T16:02:58.597Z,100483.83
2019-04-21T16:06:03.355Z,100483.83
2019-04-21T16:09:16.094Z,100482.45
2019-04-21T16:12:15.905Z,100476.95
2019-04-21T16:15:20.812Z,100478.25
2019-04-21T16:18:24.606Z,100475.98
2019-04-21T16:21:29.550Z,100473.73
2019-04-21T16:24:35.615Z,100464.01
2019-04-21T16:27:41.455Z,100460.68
2019-04-21T16:30:44.749Z,100454.52
2019-04-21T16:33:49.179Z,100457.57
2019-04-21T16:36:53.905Z,100451.74
2019-04-21T16:39:59.036Z,100454.95
2019-04-21T16:43:03.858Z,100452.66
2019-04-21T16:46:08.859Z,100447.38
2019-04-21T16:49:13.743Z,100452.31
2019-04-21T16:52:20.378Z,100448.13
2019-04-21T16:55:26.744Z,100445.09
2019-04-21T16:58:32.586Z,100439.22
2019-04-21T17:01:36.520Z,100443.28
2019-04-21T17:04:40.364Z,100428.60
2019-04-21T17:07:47.000Z,100427.21
2019-04-21T17:11:03.038Z,100428.55
2019-04-21T17:14:03.600Z,100431.53
2019-04-21T17:17:35.154Z,100428.47
2019-04-21T17:20:27.890Z,100423.91
2019-04-21T17:23:25.274Z,100427.66
2019-04-21T17:26:29.366Z,100427.94
2019-04-21T17:29:34.573Z,100429.53
2019-04-21T17:32:44.262Z,100429.69
2019-04-21T17:35:44.918Z,100425.42
2019-04-21T17:38:50.020Z,100420.92
2019-04-21T17:42:05.253Z,100428.38
2019-04-21T17:44:59.539Z,100420.09
2019-04-21T17:48:06.037Z,100424.81
2019-04-21T17:51:19.278Z,100416.77
2019-04-21T17:54:35.712Z,100415.03
2019-04-21T17:57:54.547Z,100417.78
2019-04-21T18:01:12.917Z,100416.20
2019-04-21T18:04:15.471Z,100419.97
2019-04-21T18:07:26.264Z,100417.33
2019-04-21T18:10:42.252Z,100418.26
2019-04-21T18:13:19.522Z,100414.62
2019-04-21T18:16:30.090Z,100416.00
2019-04-21T18:19:28.711Z,100416.86
2019-04-21T18:22:46.993Z,100414.52
2019-04-21T18:25:56.237Z,100411.55
2019-04-21T18:28:55.263Z,100417.43
2019-04-21T18:31:59.388Z,100414.66
2019-04-21T18:35:17.048Z,100414.73
2019-04-21T18:38:28.099Z,100418.48
2019-04-21T18:41:32.218Z,100417.22
2019-04-21T18:48:22.222Z,100412.63
2019-04-21T18:51:35.950Z,100421.28
2019-04-21T18:54:58.160Z,100417.88
2019-04-21T18:57:48.421Z,100428.14
2019-04-21T19:00:53.109Z,100431.72
2019-04-21T19:03:58.341Z,100432.09
2019-04-21T19:07:18.261Z,100434.53
2019-04-21T19:10:29.034Z,100433.53
2019-04-21T19:22:47.717Z,100439.09
2019-04-21T19:26:05.003Z,100435.44
2019-04-21T19:29:09.837Z,100440.34
2019-04-21T19:32:08.744Z,100433.64
2019-04-21T19:34:57.427Z,100437.88
2019-04-21T19:38:02.093Z,100436.27
2019-04-21T19:41:20.978Z,100433.95
2019-04-21T19:44:29.298Z,100438.31
2019-04-21T19:47:36.683Z,100441.36
2019-04-21T19:50:41.226Z,100430.02
2019-04-21T19:53:43.149Z,100430.53
2019-04-21T19:56:32.201Z,100429.75
2019-04-21T19:59:42.304Z,100429.31
2019-04-21T20:02:42.698Z,100435.41
2019-04-21T20:05:54.828Z,100434.77
2019-04-21T20:09:08.385Z,100433.08
2019-04-21T20:12:09.615Z,100429.43
2019-04-21T20:15:26.042Z,100432.21
2019-04-21T20:18:20.984Z,100429.41
2019-04-21T20:21:14.342Z,100425.62
2019-04-21T20:24:24.420Z,100426.80
2019-04-21T20:27:36.431Z,100417.83
2019-04-21T20:30:52.783Z,100421.97
2019-04-21T20:34:11.187Z,100418.35
2019-04-21T20:37:02.740Z,100420.65
2019-04-21T20:39:54.879Z,100415.20
2019-04-21T20:43:13.481Z,100423.31
2019-04-21T20:46:11.868Z,100415.31
2019-04-21T20:49:15.789Z,100418.38
2019-04-21T20:52:31.686Z,100419.15
2019-04-21T20:55:25.192Z,100410.77
2019-04-21T20:58:36.697Z,100419.23
2019-04-21T21:01:43.423Z,100411.08
2019-04-21T21:04:40.295Z,100418.94
2019-04-21T21:07:55.905Z,100411.93
2019-04-21T21:10:57.523Z,100408.19
2019-04-21T21:14:07.432Z,100410.94
2019-04-21T21:17:18.363Z,100403.84
2019-04-21T21:20:20.434Z,100402.78
2019-04-21T21:23:14.519Z,100408.19
2019-04-21T21:26:30.764Z,100411.02
2019-04-21T21:29:45.795Z,100400.55
2019-04-21T21:32:37.383Z,100402.38
2019-04-21T21:35:39.547Z,100406.63
2019-04-21T21:38:50.016Z,100401.16
2019-04-21T21:41:42.920Z,100408.92
2019-04-21T21:44:49.521Z,100404.65
2019-04-21T21:48:07.238Z,100404.33
2019-04-21T21:51:03.857Z,100397.77
2019-04-21T21:54:00.897Z,100402.69
2019-04-21T21:57:04.980Z,100400.65
2019-04-21T22:00:12.354Z,100402.91
2019-04-21T22:03:26.638Z,100403.64
2019-04-21T22:06:23.922Z,100401.09
2019-04-21T22:09:28.311Z,100398.92
2019-04-21T22:12:42.838Z,100401.62
2019-04-21T22:15:37.695Z,100398.28
2019-04-21T22:19:05.619Z,100396.81
2019-04-21T22:22:05.173Z,100397.48
2019-04-21T22:25:02.756Z,100393.08
2019-04-21T22:28:03.893Z,100392.31
2019-04-21T22:31:08.162Z,100391.05
2019-04-21T22:34:16.234Z,100390.13
2019-04-21T22:37:35.018Z,100389.12
2019-04-21T22:40:44.079Z,100385.45
2019-04-21T22:43:36.655Z,100389.53
2019-04-21T22:46:38.139Z,100384.53
2019-04-21T22:49:41.789Z,100388.27
2019-04-21T22:52:47.485Z,100382.71
2019-04-21T22:56:00.405Z,100380.30
2019-04-21T22:58:57.122Z,100385.96
2019-04-21T23:02:01.514Z,100391.55
2019-04-21T23:05:07.934Z,100388.41
2019-04-21T23:08:12.902Z,100383.69
2019-04-21T23:11:17.945Z,100386.99
2019-04-21T23:14:21.887Z,100382.92
2019-04-21T23:17:46.613Z,100378.09
2019-04-21T23:20:47.688Z,100374.55
2019-04-21T23:23:57.178Z,100374.46
2019-04-21T23:26:53.710Z,100376.47
2019-04-21T23:30:17.832Z,100378.39
2019-04-21T23:32:59.716Z,100379.84
2019-04-21T23:36:03.657Z,100373.86
2019-04-21T23:39:06.992Z,100371.88
2019-04-21T23:42:09.195Z,100369.89
2019-04-21T23:45:17.647Z,100365.98
2019-04-21T23:48:32.510Z,100371.45
2019-04-21T23:51:37.078Z,100364.19
2019-04-21T23:54:29.558Z,100360.74
2019-04-21T23:57:39.674Z,100361.91
